Presque Isle, Wisconsin
Current Conditions -  °F | °C
As of 8:35 AM on Wednesday 22 Oct 2014 (Local Time) from KD25 Reporting Station
Clear Clear  
Wind Chill: 29°   Ceiling: Unl
Heat Index: 35°   Visibility: 7mi
Dew Point: 35°   Wind: 7mph
Humidity: 99%   Direction: 170°S
Pressure: 30.3"   Gusts: NA
Location:  46.25°N, 89.73°W
Report Text: KD25 221335Z AUTO 17006KT 7SM CLR 02/02 A3030 RMK AO2 T00160015
Loading
Personal Weather Stations






























Interactive Weather Map
Tropical Storm Tracking
New forecast layout! Learn more

10-Day Weather Forecast

Advertisements
Track Severe Weather on mobile